Duplicat — 2EDQ5 — position and weather

sailwx.info

Track history (hours):
 
Tides and Currents Weather Stations Pressure Air Temp Water Temp Dewpoint Dewpoint Depression Visibility Wind Speed Wind Dir Waves Ship Positions

Duplicat

Last reported at 2018-Feb-11 15:14 UTC. Time now 2018-Jun-18 11:46 UTC.
Position N 25°39' W 080°12'.
Warning: this ship's position is months out of date.

Length 12 m; draft 1.2 m.

Type: Pleasure craft. MMSI: 235084215.

Date/timePositionNaut miles runAvg speedWind from/ knotsBaromVisibWave heightAir tempDewpointWater temp
2018-Feb-11 15:14N 25°39' W 080°12'1 4.2
2018-Feb-11 14:59N 25°40' W 080°12'2 3.5
2018-Feb-11 14:29N 25°41' W 080°11'1 0.1
2018-Feb-11 02:06N 25°41' W 080°10'0 0.0
2018-Feb-11 01:48N 25°41' W 080°10'0 0.0
2018-Feb-11 01:30N 25°41' W 080°10'0 0.0
2018-Feb-11 00:54N 25°41' W 080°10'0 0.0
2018-Feb-10 16:43N 25°41' W 080°10'0 1.7
2018-Feb-10 16:28N 25°41' W 080°10'  
2018-Feb-05 20:59N 25°39' W 080°15'3 5.6
2018-Feb-05 20:30N 25°40' W 080°13'1 2.0
2018-Feb-05 19:59N 25°41' W 080°13'3 5.3
2018-Feb-05 19:29N 25°38' W 080°13'  
Track history (hours):
 
Tides and Currents Weather Stations Pressure Air Temp Water Temp Dewpoint Dewpoint Depression Visibility Wind Speed Wind Dir Waves Ship Positions

Duplicat

Last reported at 2018-Feb-11 15:14 UTC. Time now 2018-Jun-18 11:46 UTC.
Position N 25°39' W 080°12'.
Warning: this ship's position is months out of date.

Length 12 m; draft 1.2 m.

Type: Pleasure craft. MMSI: 235084215.

Date/timePositionNaut miles runAvg speedWind from/ knotsBaromVisibWave heightAir tempDewpointWater temp
2018-Feb-11 15:14N 25°39' W 080°12'1 4.2
2018-Feb-11 14:59N 25°40' W 080°12'2 3.5
2018-Feb-11 14:29N 25°41' W 080°11'1 0.1
2018-Feb-11 02:06N 25°41' W 080°10'0 0.0
2018-Feb-11 01:48N 25°41' W 080°10'0 0.0
2018-Feb-11 01:30N 25°41' W 080°10'0 0.0
2018-Feb-11 00:54N 25°41' W 080°10'0 0.0
2018-Feb-10 16:43N 25°41' W 080°10'0 1.7
2018-Feb-10 16:28N 25°41' W 080°10'  
2018-Feb-05 20:59N 25°39' W 080°15'3 5.6
2018-Feb-05 20:30N 25°40' W 080°13'1 2.0
2018-Feb-05 19:59N 25°41' W 080°13'3 5.3
2018-Feb-05 19:29N 25°38' W 080°13'  

Dump ship's entire track history